Genua — IIYU — position and weather

sailwx.info

Track history (hours):
 
Tides and Currents Weather Stations Pressure Air Temp Water Temp Dewpoint Dewpoint Depression Visibility Wind Speed Wind Dir Waves Ship Positions

Genua

Last reported at 2015-Aug-28 04:34 UTC. Time now 2015-Aug-28 05:09 UTC.
Position N 44°25' E 008°55'.

; draft 6 m.

Type: Tug. MMSI: 247204000.

Date/timePositionNaut miles runAvg speedWind from/ knotsBaromVisibWave heightAir tempDewpointWater temp
2015-Aug-28 04:34N 44°25' E 008°55'0 0.0
2015-Aug-28 03:33N 44°25' E 008°55'0 0.0
2015-Aug-28 02:33N 44°25' E 008°55'0 0.0
2015-Aug-28 01:34N 44°25' E 008°55'0 0.0
2015-Aug-28 00:33N 44°25' E 008°55'0 0.0
2015-Aug-27 23:33N 44°25' E 008°55'0 0.0
2015-Aug-27 22:33N 44°25' E 008°55'0 0.0
2015-Aug-27 21:33N 44°25' E 008°55'0 0.0
2015-Aug-27 20:33N 44°25' E 008°55'0 0.0
2015-Aug-27 19:33N 44°25' E 008°55'0 0.0
2015-Aug-27 18:33N 44°25' E 008°55'0 0.0
2015-Aug-27 17:33N 44°25' E 008°55'0 0.0
2015-Aug-27 16:33N 44°25' E 008°55'0 0.0
2015-Aug-27 15:33N 44°25' E 008°55'1 1.1
2015-Aug-27 14:33N 44°24' E 008°56'2 2.1
2015-Aug-27 13:33N 44°23' E 008°53'3 2.7
2015-Aug-27 12:33N 44°25' E 008°50'0 0.0
2015-Aug-27 11:33N 44°25' E 008°50'0 0.0
2015-Aug-27 10:33N 44°25' E 008°50'0 0.0
2015-Aug-27 09:33N 44°25' E 008°50'0 0.0
2015-Aug-27 08:33N 44°25' E 008°50'0 0.0
2015-Aug-27 07:33N 44°25' E 008°50'0 0.1
2015-Aug-27 06:33N 44°25' E 008°50'1 1.2
2015-Aug-27 05:33N 44°24' E 008°49'5 4.7
2015-Aug-27 04:33N 44°23' E 008°55'1 1.1
2015-Aug-27 03:33N 44°24' E 008°56'1 0.9
2015-Aug-27 02:33N 44°25' E 008°55'0 0.0
2015-Aug-27 01:33N 44°25' E 008°55'0 0.0
2015-Aug-27 00:33N 44°25' E 008°55'0 0.0
2015-Aug-26 23:33N 44°25' E 008°55'0 0.0
2015-Aug-26 22:33N 44°25' E 008°55'0 0.0
2015-Aug-26 21:33N 44°25' E 008°55'0 0.0
2015-Aug-26 20:33N 44°25' E 008°55'0 0.0
2015-Aug-26 19:33N 44°25' E 008°55'0 0.0
2015-Aug-26 18:33N 44°25' E 008°55'0 0.0
2015-Aug-26 17:33N 44°25' E 008°55'0 0.0
2015-Aug-26 16:33N 44°25' E 008°55'0 0.0
2015-Aug-26 15:33N 44°25' E 008°55'0 0.0
2015-Aug-26 14:33N 44°25' E 008°55'0 0.0
2015-Aug-26 13:33N 44°25' E 008°55'0 0.0
2015-Aug-26 12:33N 44°25' E 008°55'0 0.0
2015-Aug-26 11:33N 44°25' E 008°55'0 0.0
2015-Aug-25 14:28N 44°25' E 008°55'0 0.0
2015-Aug-25 13:33N 44°25' E 008°55'0 0.0
2015-Aug-25 12:33N 44°25' E 008°55'0 0.0
2015-Aug-25 11:33N 44°25' E 008°55'0 0.0
2015-Aug-24 14:26N 44°25' E 008°55'0 0.0
2015-Aug-24 13:33N 44°25' E 008°55'0 0.0
2015-Aug-24 12:33N 44°25' E 008°55'0 0.0
2015-Aug-24 11:33N 44°25' E 008°55'0 0.0
2015-Aug-24 10:33N 44°25' E 008°55'0 0.0
2015-Aug-24 09:33N 44°25' E 008°55'0 0.0
2015-Aug-24 08:33N 44°25' E 008°55'0 0.0
2015-Aug-24 07:33N 44°25' E 008°55'0 0.0
2015-Aug-24 06:33N 44°25' E 008°55'0 0.0
2015-Aug-22 12:33N 44°25' E 008°55'0 0.0
2015-Aug-22 11:33N 44°25' E 008°55'0 0.0
2015-Aug-22 10:33N 44°25' E 008°55'0 0.0
2015-Aug-22 09:33N 44°25' E 008°55'0 0.0
2015-Aug-22 08:33N 44°25' E 008°55'0 0.0
2015-Aug-22 07:33N 44°25' E 008°55'0 0.0
2015-Aug-22 06:33N 44°25' E 008°55'0 0.0
2015-Aug-22 05:33N 44°25' E 008°55'0 0.0
2015-Aug-22 04:33N 44°25' E 008°55'0 0.0
2015-Aug-22 03:33N 44°25' E 008°55'0 0.0
2015-Aug-22 02:33N 44°25' E 008°55'0 0.0
2015-Aug-22 01:33N 44°25' E 008°55'0 0.0
2015-Aug-22 00:33N 44°25' E 008°55'0 0.0
2015-Aug-21 23:33N 44°25' E 008°55'0 0.0
2015-Aug-21 22:33N 44°25' E 008°55'0 0.0
2015-Aug-21 21:33N 44°25' E 008°55'0 0.0
2015-Aug-21 20:33N 44°25' E 008°55'0 0.0
2015-Aug-21 19:33N 44°25' E 008°55'0 0.0
2015-Aug-21 18:33N 44°25' E 008°55'0 0.0
2015-Aug-21 17:33N 44°25' E 008°55'0 0.0
2015-Aug-21 16:33N 44°25' E 008°55'0 0.0
2015-Aug-21 15:33N 44°25' E 008°55'0 0.0
2015-Aug-21 14:33N 44°25' E 008°55'0 0.0
2015-Aug-21 13:33N 44°25' E 008°55'0 0.0
2015-Aug-21 12:33N 44°25' E 008°55'0 0.0
2015-Aug-21 11:33N 44°25' E 008°55'0 0.0
2015-Aug-21 10:33N 44°25' E 008°55'0 0.0
2015-Aug-21 09:33N 44°25' E 008°55'0 0.0
2015-Aug-21 08:33N 44°25' E 008°55'0 0.0
2015-Aug-21 07:33N 44°25' E 008°55'0 0.0
2015-Aug-21 06:33N 44°25' E 008°55'0 0.0
2015-Aug-21 05:33N 44°25' E 008°55'0 0.0
2015-Aug-20 16:33N 44°25' E 008°55'0 0.0
2015-Aug-20 15:33N 44°25' E 008°55'0 0.0
2015-Aug-20 14:33N 44°25' E 008°55'0 0.0
2015-Aug-20 13:33N 44°25' E 008°55'0 0.0
2015-Aug-20 12:33N 44°25' E 008°55'0 0.0
2015-Aug-20 11:33N 44°25' E 008°55'0 0.0
2015-Aug-20 10:33N 44°25' E 008°55'0 0.0
2015-Aug-20 09:33N 44°25' E 008°55'0 0.0
2015-Aug-20 08:33N 44°25' E 008°55'0 0.0
2015-Aug-20 07:33N 44°25' E 008°55'0 0.0
2015-Aug-20 06:33N 44°25' E 008°55'0 0.0
2015-Aug-20 05:33N 44°25' E 008°55'0 0.0
2015-Aug-19 16:33N 44°25' E 008°55'0 0.0
2015-Aug-19 15:33N 44°25' E 008°55'0 0.0
2015-Aug-19 14:33N 44°25' E 008°55'0 0.0
2015-Aug-19 13:33N 44°25' E 008°55'0 0.0
2015-Aug-19 12:33N 44°25' E 008°55'0 0.0
2015-Aug-19 11:33N 44°25' E 008°55'0 0.0
2015-Aug-19 10:33N 44°25' E 008°55'0 0.0
2015-Aug-19 09:33N 44°25' E 008°55'0 0.0
2015-Aug-19 08:34N 44°25' E 008°55'0 0.0
2015-Aug-19 07:34N 44°25' E 008°55'0 0.0
2015-Aug-19 06:33N 44°25' E 008°55'0 0.0
2015-Aug-18 14:32N 44°25' E 008°55'0 0.0
2015-Aug-18 13:33N 44°25' E 008°55'0 0.0
2015-Aug-18 12:33N 44°25' E 008°55'0 0.0
2015-Aug-18 11:33N 44°25' E 008°55'0 0.0
2015-Aug-18 10:32N 44°25' E 008°55'0 0.0
2015-Aug-18 09:33N 44°25' E 008°55'0 0.0
2015-Aug-18 08:33N 44°25' E 008°55'0 0.0
2015-Aug-18 07:33N 44°25' E 008°55'0 0.0
2015-Aug-18 06:33N 44°25' E 008°55'  
Track history (hours):
 
Tides and Currents Weather Stations Pressure Air Temp Water Temp Dewpoint Dewpoint Depression Visibility Wind Speed Wind Dir Waves Ship Positions

Genua

Last reported at 2015-Aug-28 04:34 UTC. Time now 2015-Aug-28 05:09 UTC.
Position N 44°25' E 008°55'.

; draft 6 m.

Type: Tug. MMSI: 247204000.

Date/timePositionNaut miles runAvg speedWind from/ knotsBaromVisibWave heightAir tempDewpointWater temp
2015-Aug-28 04:34N 44°25' E 008°55'0 0.0
2015-Aug-28 03:33N 44°25' E 008°55'0 0.0
2015-Aug-28 02:33N 44°25' E 008°55'0 0.0
2015-Aug-28 01:34N 44°25' E 008°55'0 0.0
2015-Aug-28 00:33N 44°25' E 008°55'0 0.0
2015-Aug-27 23:33N 44°25' E 008°55'0 0.0
2015-Aug-27 22:33N 44°25' E 008°55'0 0.0
2015-Aug-27 21:33N 44°25' E 008°55'0 0.0
2015-Aug-27 20:33N 44°25' E 008°55'0 0.0
2015-Aug-27 19:33N 44°25' E 008°55'0 0.0
2015-Aug-27 18:33N 44°25' E 008°55'0 0.0
2015-Aug-27 17:33N 44°25' E 008°55'0 0.0
2015-Aug-27 16:33N 44°25' E 008°55'0 0.0
2015-Aug-27 15:33N 44°25' E 008°55'1 1.1
2015-Aug-27 14:33N 44°24' E 008°56'2 2.1
2015-Aug-27 13:33N 44°23' E 008°53'3 2.7
2015-Aug-27 12:33N 44°25' E 008°50'0 0.0
2015-Aug-27 11:33N 44°25' E 008°50'0 0.0
2015-Aug-27 10:33N 44°25' E 008°50'0 0.0
2015-Aug-27 09:33N 44°25' E 008°50'0 0.0
2015-Aug-27 08:33N 44°25' E 008°50'0 0.0
2015-Aug-27 07:33N 44°25' E 008°50'0 0.1
2015-Aug-27 06:33N 44°25' E 008°50'1 1.2
2015-Aug-27 05:33N 44°24' E 008°49'5 4.7
2015-Aug-27 04:33N 44°23' E 008°55'1 1.1
2015-Aug-27 03:33N 44°24' E 008°56'1 0.9
2015-Aug-27 02:33N 44°25' E 008°55'0 0.0
2015-Aug-27 01:33N 44°25' E 008°55'0 0.0
2015-Aug-27 00:33N 44°25' E 008°55'0 0.0
2015-Aug-26 23:33N 44°25' E 008°55'0 0.0
2015-Aug-26 22:33N 44°25' E 008°55'0 0.0
2015-Aug-26 21:33N 44°25' E 008°55'0 0.0
2015-Aug-26 20:33N 44°25' E 008°55'0 0.0
2015-Aug-26 19:33N 44°25' E 008°55'0 0.0
2015-Aug-26 18:33N 44°25' E 008°55'0 0.0
2015-Aug-26 17:33N 44°25' E 008°55'0 0.0
2015-Aug-26 16:33N 44°25' E 008°55'0 0.0
2015-Aug-26 15:33N 44°25' E 008°55'0 0.0
2015-Aug-26 14:33N 44°25' E 008°55'0 0.0
2015-Aug-26 13:33N 44°25' E 008°55'0 0.0
2015-Aug-26 12:33N 44°25' E 008°55'0 0.0
2015-Aug-26 11:33N 44°25' E 008°55'0 0.0
2015-Aug-25 14:28N 44°25' E 008°55'0 0.0
2015-Aug-25 13:33N 44°25' E 008°55'0 0.0
2015-Aug-25 12:33N 44°25' E 008°55'0 0.0
2015-Aug-25 11:33N 44°25' E 008°55'0 0.0
2015-Aug-24 14:26N 44°25' E 008°55'0 0.0
2015-Aug-24 13:33N 44°25' E 008°55'0 0.0
2015-Aug-24 12:33N 44°25' E 008°55'0 0.0
2015-Aug-24 11:33N 44°25' E 008°55'0 0.0
2015-Aug-24 10:33N 44°25' E 008°55'0 0.0
2015-Aug-24 09:33N 44°25' E 008°55'0 0.0
2015-Aug-24 08:33N 44°25' E 008°55'0 0.0
2015-Aug-24 07:33N 44°25' E 008°55'0 0.0
2015-Aug-24 06:33N 44°25' E 008°55'0 0.0
2015-Aug-22 12:33N 44°25' E 008°55'0 0.0
2015-Aug-22 11:33N 44°25' E 008°55'0 0.0
2015-Aug-22 10:33N 44°25' E 008°55'0 0.0
2015-Aug-22 09:33N 44°25' E 008°55'0 0.0
2015-Aug-22 08:33N 44°25' E 008°55'0 0.0
2015-Aug-22 07:33N 44°25' E 008°55'0 0.0
2015-Aug-22 06:33N 44°25' E 008°55'0 0.0
2015-Aug-22 05:33N 44°25' E 008°55'0 0.0
2015-Aug-22 04:33N 44°25' E 008°55'0 0.0
2015-Aug-22 03:33N 44°25' E 008°55'0 0.0
2015-Aug-22 02:33N 44°25' E 008°55'0 0.0
2015-Aug-22 01:33N 44°25' E 008°55'0 0.0
2015-Aug-22 00:33N 44°25' E 008°55'0 0.0
2015-Aug-21 23:33N 44°25' E 008°55'0 0.0
2015-Aug-21 22:33N 44°25' E 008°55'0 0.0
2015-Aug-21 21:33N 44°25' E 008°55'0 0.0
2015-Aug-21 20:33N 44°25' E 008°55'0 0.0
2015-Aug-21 19:33N 44°25' E 008°55'0 0.0
2015-Aug-21 18:33N 44°25' E 008°55'0 0.0
2015-Aug-21 17:33N 44°25' E 008°55'0 0.0
2015-Aug-21 16:33N 44°25' E 008°55'0 0.0
2015-Aug-21 15:33N 44°25' E 008°55'0 0.0
2015-Aug-21 14:33N 44°25' E 008°55'0 0.0
2015-Aug-21 13:33N 44°25' E 008°55'0 0.0
2015-Aug-21 12:33N 44°25' E 008°55'0 0.0
2015-Aug-21 11:33N 44°25' E 008°55'0 0.0
2015-Aug-21 10:33N 44°25' E 008°55'0 0.0
2015-Aug-21 09:33N 44°25' E 008°55'0 0.0
2015-Aug-21 08:33N 44°25' E 008°55'0 0.0
2015-Aug-21 07:33N 44°25' E 008°55'0 0.0
2015-Aug-21 06:33N 44°25' E 008°55'0 0.0
2015-Aug-21 05:33N 44°25' E 008°55'0 0.0
2015-Aug-20 16:33N 44°25' E 008°55'0 0.0
2015-Aug-20 15:33N 44°25' E 008°55'0 0.0
2015-Aug-20 14:33N 44°25' E 008°55'0 0.0
2015-Aug-20 13:33N 44°25' E 008°55'0 0.0
2015-Aug-20 12:33N 44°25' E 008°55'0 0.0
2015-Aug-20 11:33N 44°25' E 008°55'0 0.0
2015-Aug-20 10:33N 44°25' E 008°55'0 0.0
2015-Aug-20 09:33N 44°25' E 008°55'0 0.0
2015-Aug-20 08:33N 44°25' E 008°55'0 0.0
2015-Aug-20 07:33N 44°25' E 008°55'0 0.0
2015-Aug-20 06:33N 44°25' E 008°55'0 0.0
2015-Aug-20 05:33N 44°25' E 008°55'0 0.0
2015-Aug-19 16:33N 44°25' E 008°55'0 0.0
2015-Aug-19 15:33N 44°25' E 008°55'0 0.0
2015-Aug-19 14:33N 44°25' E 008°55'0 0.0
2015-Aug-19 13:33N 44°25' E 008°55'0 0.0
2015-Aug-19 12:33N 44°25' E 008°55'0 0.0
2015-Aug-19 11:33N 44°25' E 008°55'0 0.0
2015-Aug-19 10:33N 44°25' E 008°55'0 0.0
2015-Aug-19 09:33N 44°25' E 008°55'0 0.0
2015-Aug-19 08:34N 44°25' E 008°55'0 0.0
2015-Aug-19 07:34N 44°25' E 008°55'0 0.0
2015-Aug-19 06:33N 44°25' E 008°55'0 0.0
2015-Aug-18 14:32N 44°25' E 008°55'0 0.0
2015-Aug-18 13:33N 44°25' E 008°55'0 0.0
2015-Aug-18 12:33N 44°25' E 008°55'0 0.0
2015-Aug-18 11:33N 44°25' E 008°55'0 0.0
2015-Aug-18 10:32N 44°25' E 008°55'0 0.0
2015-Aug-18 09:33N 44°25' E 008°55'0 0.0
2015-Aug-18 08:33N 44°25' E 008°55'0 0.0
2015-Aug-18 07:33N 44°25' E 008°55'0 0.0
2015-Aug-18 06:33N 44°25' E 008°55'  

Dump ship's entire track history